Time,TemperatureF,DewpointF,PressureIn,WindDirection,WindDirectionDegrees,WindSpeedMPH,WindSpeedGustMPH,Humidity,HourlyPrecipIn,Conditions,Clouds,dailyrainin,SoftwareType,DateUTC
2013-04-15 00:00:00,62.8,47.8,30.09,South,180,1.0,4.0,58,0.00,,,0.00,meteohub,2013-04-15 04:00:00,
2013-04-15 00:01:00,62.8,47.8,30.09,South,180,1.0,3.0,58,0.00,,,0.00,meteohub,2013-04-15 04:01:00,
2013-04-15 00:07:00,62.8,47.8,30.09,South,180,1.0,3.0,58,0.00,,,0.00,meteohub,2013-04-15 04:07:00,
2013-04-15 00:12:00,62.2,49.1,30.10,South,180,0.0,2.0,62,0.00,,,0.00,meteohub,2013-04-15 04:12:00,
2013-04-15 00:17:00,62.1,48.9,30.10,East,90,3.0,4.0,62,0.00,,,0.00,meteohub,2013-04-15 04:17:00,
2013-04-15 00:22:00,62.6,48.0,30.11,NE,45,4.0,8.0,59,0.00,,,0.00,meteohub,2013-04-15 04:22:00,
2013-04-15 00:27:00,63.1,48.6,30.12,SE,135,2.0,8.0,59,0.00,,,0.00,meteohub,2013-04-15 04:27:00,
2013-04-15 00:32:00,63.3,48.4,30.12,SE,135,4.0,8.0,58,0.00,,,0.00,meteohub,2013-04-15 04:32:00,
2013-04-15 00:37:00,63.3,47.8,30.12,NE,45,1.0,6.0,57,0.00,,,0.00,meteohub,2013-04-15 04:37:00,
2013-04-15 00:42:00,63.0,48.4,30.12,SE,135,1.0,6.0,59,0.00,,,0.00,meteohub,2013-04-15 04:42:00,
2013-04-15 00:47:00,62.4,49.6,30.12,South,180,2.0,6.0,63,0.00,,,0.00,meteohub,2013-04-15 04:47:00,
2013-04-15 00:52:00,61.9,49.1,30.12,SW,225,2.0,4.0,63,0.00,,,0.00,meteohub,2013-04-15 04:52:00,
2013-04-15 00:57:00,61.5,48.7,30.12,NW,315,4.0,4.0,63,0.00,,,0.00,meteohub,2013-04-15 04:57:00,
2013-04-15 01:02:00,61.3,48.6,30.12,West,270,1.0,4.0,63,0.00,,,0.00,meteohub,2013-04-15 05:02:00,
2013-04-15 01:07:00,61.0,49.1,30.12,SW,225,1.0,4.0,65,0.00,,,0.00,meteohub,2013-04-15 05:07:00,
2013-04-15 01:12:00,60.4,50.5,30.12,South,180,2.0,4.0,70,0.00,,,0.00,meteohub,2013-04-15 05:12:00,
2013-04-15 01:17:00,59.5,50.9,30.12,South,180,3.0,3.0,73,0.01,,,0.01,meteohub,2013-04-15 05:17:00,
2013-04-15 01:22:00,59.0,51.4,30.13,South,180,1.0,3.0,76,0.01,,,0.01,meteohub,2013-04-15 05:22:00,
2013-04-15 01:27:00,58.5,52.0,30.13,South,180,2.0,3.0,79,0.01,,,0.01,meteohub,2013-04-15 05:27:00,
2013-04-15 01:32:00,57.7,51.6,30.14,South,180,2.0,3.0,80,0.01,,,0.01,meteohub,2013-04-15 05:32:00,
2013-04-15 01:37:00,57.6,51.8,30.14,West,270,2.0,2.0,81,0.01,,,0.01,meteohub,2013-04-15 05:37:00,
2013-04-15 01:42:00,57.2,51.8,30.14,South,180,1.0,4.0,82,0.04,,,0.04,meteohub,2013-04-15 05:42:00,
2013-04-15 01:47:00,56.8,52.3,30.15,South,180,2.0,4.0,85,0.04,,,0.04,meteohub,2013-04-15 05:47:00,
2013-04-15 01:52:00,56.5,52.3,30.15,SW,225,2.0,2.0,86,0.05,,,0.05,meteohub,2013-04-15 05:52:00,
2013-04-15 01:57:00,56.1,52.0,30.15,West,270,2.0,4.0,86,0.05,,,0.05,meteohub,2013-04-15 05:57:00,
2013-04-15 02:02:00,55.9,52.2,30.15,SE,135,2.0,4.0,87,0.06,,,0.06,meteohub,2013-04-15 06:02:00,
2013-04-15 02:07:00,55.9,52.2,30.15,SE,135,2.0,4.0,87,0.06,,,0.06,meteohub,2013-04-15 06:07:00,
2013-04-15 02:12:00,55.9,52.2,30.15,North,0,2.0,4.0,87,0.06,,,0.06,meteohub,2013-04-15 06:12:00,
2013-04-15 02:17:00,56.1,52.0,30.15,South,180,2.0,6.0,86,0.05,,,0.06,meteohub,2013-04-15 06:17:00,
2013-04-15 02:22:00,56.1,52.0,30.15,South,180,2.0,6.0,86,0.06,,,0.07,meteohub,2013-04-15 06:22:00,
2013-04-15 02:27:00,55.9,52.2,30.15,South,180,2.0,6.0,87,0.06,,,0.07,meteohub,2013-04-15 06:27:00,
2013-04-15 02:32:00,55.8,52.3,30.15,SW,225,1.0,3.0,88,0.07,,,0.08,meteohub,2013-04-15 06:32:00,
2013-04-15 02:42:00,55.2,52.7,30.14,West,270,2.0,2.0,91,0.05,,,0.08,meteohub,2013-04-15 06:42:00,
2013-04-15 02:47:00,55.0,52.5,30.15,NE,45,2.0,2.0,91,0.06,,,0.09,meteohub,2013-04-15 06:47:00,
2013-04-15 02:52:00,55.0,52.5,30.15,SE,135,3.0,4.0,91,0.05,,,0.09,meteohub,2013-04-15 06:52:00,
2013-04-15 02:57:00,55.2,52.7,30.15,North,0,2.0,4.0,91,0.05,,,0.09,meteohub,2013-04-15 06:57:00,
2013-04-15 03:02:00,55.2,52.7,30.14,SE,135,2.0,4.0,91,0.04,,,0.09,meteohub,2013-04-15 07:02:00,
2013-04-15 03:41:00,55.0,51.6,30.15,NE,45,4.0,8.0,88,0.05,,,0.13,meteohub,2013-04-15 07:41:00,
2013-04-15 03:47:00,54.9,51.1,30.15,NE,45,4.0,10.0,87,0.04,,,0.13,meteohub,2013-04-15 07:47:00,
2013-04-15 03:48:00,54.9,51.1,30.15,NE,45,4.0,10.0,87,0.04,,,0.13,meteohub,2013-04-15 07:48:00,
2013-04-15 03:53:00,54.7,50.9,30.15,SW,225,2.0,10.0,87,0.04,,,0.13,meteohub,2013-04-15 07:53:00,
2013-04-15 03:58:00,54.3,50.5,30.14,NE,45,2.0,10.0,87,0.05,,,0.14,meteohub,2013-04-15 07:58:00,
2013-04-15 04:03:00,54.3,50.9,30.14,WNW,293,4.0,4.0,88,0.06,,,0.15,meteohub,2013-04-15 08:03:00,
2013-04-15 04:08:00,54.1,50.9,30.14,NE,45,2.0,4.0,89,0.06,,,0.15,meteohub,2013-04-15 08:08:00,
2013-04-15 04:14:00,54.0,51.1,30.14,South,180,1.0,4.0,90,0.06,,,0.15,meteohub,2013-04-15 08:14:00,
2013-04-15 04:19:00,53.8,50.9,30.14,NW,315,2.0,4.0,90,0.05,,,0.15,meteohub,2013-04-15 08:19:00,
2013-04-15 04:24:00,53.6,51.1,30.15,NW,315,3.0,4.0,91,0.06,,,0.17,meteohub,2013-04-15 08:24:00,
2013-04-15 04:29:00,53.6,51.1,30.15,SW,225,2.0,3.0,91,0.05,,,0.17,meteohub,2013-04-15 08:29:00,
2013-04-15 04:34:00,53.4,51.1,30.15,SE,135,1.0,3.0,92,0.05,,,0.17,meteohub,2013-04-15 08:34:00,
2013-04-15 04:37:00,53.4,51.4,30.14,North,0,1.0,3.0,93,0.05,,,0.17,meteohub,2013-04-15 08:37:00,
2013-04-15 04:40:00,53.4,51.4,30.14,North,0,3.0,3.0,93,0.05,,,0.17,meteohub,2013-04-15 08:40:00,
2013-04-15 04:45:00,53.2,51.6,30.15,NW,315,4.0,4.0,94,0.04,,,0.17,meteohub,2013-04-15 08:45:00,
2013-04-15 04:50:00,53.4,51.8,30.15,NW,315,3.0,3.0,94,0.02,,,0.17,meteohub,2013-04-15 08:50:00,
2013-04-15 04:55:00,53.4,51.8,30.15,North,0,3.0,8.0,94,0.02,,,0.17,meteohub,2013-04-15 08:55:00,
2013-04-15 05:00:00,53.4,51.8,30.15,NW,315,4.0,8.0,94,0.02,,,0.18,meteohub,2013-04-15 09:00:00,
2013-04-15 05:05:00,53.2,51.6,30.15,NW,315,3.0,8.0,94,0.02,,,0.18,meteohub,2013-04-15 09:05:00,
2013-04-15 05:10:00,53.2,51.6,30.15,North,0,4.0,5.0,94,0.02,,,0.18,meteohub,2013-04-15 09:10:00,
2013-04-15 05:15:00,53.2,51.6,30.15,North,0,2.0,5.0,94,0.02,,,0.18,meteohub,2013-04-15 09:15:00,
2013-04-15 05:20:00,53.1,51.4,30.16,NNW,338,2.0,5.0,94,0.02,,,0.19,meteohub,2013-04-15 09:20:00,
2013-04-15 05:25:00,53.1,51.6,30.15,North,0,3.0,6.0,95,0.02,,,0.19,meteohub,2013-04-15 09:25:00,
2013-04-15 05:30:00,53.1,51.6,30.15,WNW,293,5.0,6.0,95,0.02,,,0.19,meteohub,2013-04-15 09:30:00,
2013-04-15 05:35:00,52.9,51.4,30.15,North,0,4.0,6.0,95,0.04,,,0.20,meteohub,2013-04-15 09:35:00,
2013-04-15 05:40:00,52.7,51.6,30.14,West,270,8.0,8.0,96,0.04,,,0.20,meteohub,2013-04-15 09:40:00,
2013-04-15 05:45:00,52.7,51.6,30.15,NW,315,5.0,8.0,96,0.04,,,0.20,meteohub,2013-04-15 09:45:00,
2013-04-15 05:50:00,52.7,51.6,30.15,NW,315,4.0,8.0,96,0.04,,,0.20,meteohub,2013-04-15 09:50:00,
2013-04-15 05:55:00,52.7,51.6,30.15,NW,315,7.0,8.0,96,0.02,,,0.20,meteohub,2013-04-15 09:55:00,
2013-04-15 06:00:00,52.7,51.6,30.15,NW,315,4.0,8.0,96,0.02,,,0.20,meteohub,2013-04-15 10:00:00,
2013-04-15 06:05:00,52.7,51.6,30.15,NW,315,4.0,7.0,96,0.02,,,0.20,meteohub,2013-04-15 10:05:00,
2013-04-15 06:10:00,52.7,51.6,30.14,NW,315,5.0,7.0,96,0.02,,,0.20,meteohub,2013-04-15 10:10:00,
2013-04-15 06:16:00,52.7,51.8,30.14,North,0,5.0,8.0,97,0.04,,,0.21,meteohub,2013-04-15 10:16:00,
2013-04-15 06:21:00,52.7,51.8,30.15,SW,225,2.0,8.0,97,0.02,,,0.21,meteohub,2013-04-15 10:21:00,
2013-04-15 06:26:00,52.7,51.8,30.15,North,0,2.0,8.0,97,0.02,,,0.21,meteohub,2013-04-15 10:26:00,
2013-04-15 06:31:00,52.5,52.0,30.16,NE,45,4.0,8.0,98,0.02,,,0.21,meteohub,2013-04-15 10:31:00,
2013-04-15 06:36:00,52.7,52.2,30.16,NW,315,4.0,5.0,98,0.01,,,0.21,meteohub,2013-04-15 10:36:00,
2013-04-15 06:41:00,52.7,52.2,30.15,North,0,8.0,8.0,98,0.01,,,0.21,meteohub,2013-04-15 10:41:00,
2013-04-15 06:46:00,52.7,52.2,30.15,NNW,338,3.0,8.0,98,0.01,,,0.21,meteohub,2013-04-15 10:46:00,
2013-04-15 06:51:00,52.7,52.2,30.16,North,0,6.0,8.0,98,0.01,,,0.21,meteohub,2013-04-15 10:51:00,
2013-04-15 06:56:00,52.7,52.2,30.16,North,0,4.0,10.0,98,0.01,,,0.21,meteohub,2013-04-15 10:56:00,
2013-04-15 07:01:00,52.7,52.2,30.16,NW,315,4.0,10.0,98,0.01,,,0.21,meteohub,2013-04-15 11:01:00,
2013-04-15 07:07:00,52.7,52.2,30.16,NW,315,5.0,6.0,98,0.01,,,0.21,meteohub,2013-04-15 11:07:00,
2013-04-15 07:12:00,52.7,52.2,30.17,NE,45,4.0,5.0,98,0.01,,,0.21,meteohub,2013-04-15 11:12:00,
2013-04-15 07:17:00,52.7,52.2,30.16,NE,45,8.0,9.0,98,0.00,,,0.21,meteohub,2013-04-15 11:17:00,
2013-04-15 07:22:00,52.7,52.2,30.16,North,0,11.0,13.0,98,0.00,,,0.21,meteohub,2013-04-15 11:22:00,
2013-04-15 07:27:00,52.7,52.2,30.17,NW,315,6.0,13.0,98,0.01,,,0.22,meteohub,2013-04-15 11:27:00,
2013-04-15 07:32:00,52.7,52.2,30.17,North,0,6.0,13.0,98,0.01,,,0.22,meteohub,2013-04-15 11:32:00,
2013-04-15 07:37:00,52.7,52.2,30.16,North,0,5.0,13.0,98,0.01,,,0.22,meteohub,2013-04-15 11:37:00,
2013-04-15 07:42:00,52.7,52.2,30.16,North,0,4.0,8.0,98,0.01,,,0.22,meteohub,2013-04-15 11:42:00,
2013-04-15 07:47:00,52.7,52.2,30.17,NW,315,7.0,11.0,98,0.01,,,0.22,meteohub,2013-04-15 11:47:00,
2013-04-15 07:52:00,52.7,52.2,30.17,NE,45,10.0,11.0,98,0.01,,,0.22,meteohub,2013-04-15 11:52:00,
2013-04-15 07:57:00,52.7,52.2,30.17,NNW,338,4.0,12.0,98,0.02,,,0.24,meteohub,2013-04-15 11:57:00,
2013-04-15 08:02:00,52.7,52.2,30.17,NE,45,5.0,12.0,98,0.02,,,0.24,meteohub,2013-04-15 12:02:00,
2013-04-15 08:07:00,52.7,52.2,30.17,NE,45,5.0,12.0,98,0.02,,,0.24,meteohub,2013-04-15 12:07:00,
2013-04-15 08:12:00,52.7,52.2,30.17,NE,45,4.0,9.0,98,0.02,,,0.24,meteohub,2013-04-15 12:12:00,
2013-04-15 08:17:00,52.7,52.2,30.17,SSE,158,6.0,8.0,98,0.02,,,0.24,meteohub,2013-04-15 12:17:00,
2013-04-15 08:22:00,52.9,52.3,30.18,NW,315,6.0,10.0,98,0.02,,,0.24,meteohub,2013-04-15 12:22:00,
2013-04-15 08:27:00,52.9,52.3,30.18,NW,315,6.0,13.0,98,0.01,,,0.24,meteohub,2013-04-15 12:27:00,
2013-04-15 08:32:00,53.1,52.5,30.18,North,0,7.0,13.0,98,0.01,,,0.24,meteohub,2013-04-15 12:32:00,
2013-04-15 08:37:00,53.2,52.7,30.18,North,0,10.0,15.0,98,0.01,,,0.24,meteohub,2013-04-15 12:37:00,
2013-04-15 08:42:00,53.6,52.5,30.18,North,0,11.0,15.0,96,0.01,,,0.24,meteohub,2013-04-15 12:42:00,
2013-04-15 08:47:00,53.6,52.5,30.18,NE,45,9.0,15.0,96,0.01,,,0.24,meteohub,2013-04-15 12:47:00,
2013-04-15 08:52:00,53.8,52.3,30.18,NW,315,8.0,12.0,95,0.01,,,0.24,meteohub,2013-04-15 12:52:00,
2013-04-15 08:57:00,53.8,52.3,30.19,North,0,11.0,12.0,95,0.00,,,0.24,meteohub,2013-04-15 12:57:00,
2013-04-15 09:02:00,54.0,52.5,30.19,WNW,293,10.0,13.0,95,0.00,,,0.24,meteohub,2013-04-15 13:02:00,
2013-04-15 09:07:00,54.1,52.5,30.18,North,0,5.0,13.0,94,0.00,,,0.24,meteohub,2013-04-15 13:07:00,
2013-04-15 09:12:00,54.1,52.5,30.18,NW,315,11.0,13.0,94,0.00,,,0.24,meteohub,2013-04-15 13:12:00,
2013-04-15 09:17:00,54.1,52.2,30.18,NW,315,11.0,16.0,93,0.00,,,0.24,meteohub,2013-04-15 13:17:00,
2013-04-15 09:22:00,54.3,52.3,30.18,NW,315,17.0,17.0,93,0.00,,,0.24,meteohub,2013-04-15 13:22:00,
2013-04-15 09:28:00,54.3,52.3,30.19,NW,315,11.0,17.0,93,0.00,,,0.24,meteohub,2013-04-15 13:28:00,
2013-04-15 09:33:00,54.3,52.3,30.19,East,90,16.0,17.0,93,0.00,,,0.24,meteohub,2013-04-15 13:33:00,
2013-04-15 09:38:00,54.5,52.2,30.19,North,0,8.0,17.0,92,0.00,,,0.24,meteohub,2013-04-15 13:38:00,
2013-04-15 09:43:00,54.3,52.0,30.19,NW,315,15.0,16.0,92,0.00,,,0.24,meteohub,2013-04-15 13:43:00,
2013-04-15 09:48:00,54.3,52.0,30.19,North,0,10.0,17.0,92,0.00,,,0.24,meteohub,2013-04-15 13:48:00,
2013-04-15 09:53:00,54.3,52.3,30.19,East,90,8.0,17.0,93,0.00,,,0.24,meteohub,2013-04-15 13:53:00,
2013-04-15 09:58:00,54.3,52.3,30.19,NW,315,12.0,17.0,93,0.00,,,0.24,meteohub,2013-04-15 13:58:00,
2013-04-15 10:03:00,54.3,52.3,30.19,East,90,14.0,14.0,93,0.00,,,0.24,meteohub,2013-04-15 14:03:00,
2013-04-15 10:08:00,54.5,52.5,30.19,East,90,10.0,14.0,93,0.00,,,0.24,meteohub,2013-04-15 14:08:00,
2013-04-15 10:13:00,54.5,52.5,30.20,NW,315,6.0,14.0,93,0.00,,,0.24,meteohub,2013-04-15 14:13:00,
2013-04-15 10:18:00,54.5,52.5,30.20,WNW,293,9.0,14.0,93,0.00,,,0.24,meteohub,2013-04-15 14:18:00,
2013-04-15 10:23:00,54.7,52.7,30.19,North,0,14.0,14.0,93,0.00,,,0.24,meteohub,2013-04-15 14:23:00,
2013-04-15 10:28:00,54.7,52.7,30.19,NW,315,13.0,14.0,93,0.00,,,0.24,meteohub,2013-04-15 14:28:00,
2013-04-15 10:33:00,54.7,52.7,30.20,NE,45,15.0,15.0,93,0.00,,,0.24,meteohub,2013-04-15 14:33:00,
2013-04-15 10:38:00,54.9,52.9,30.21,North,0,11.0,15.0,93,0.00,,,0.24,meteohub,2013-04-15 14:38:00,
2013-04-15 10:43:00,54.9,52.9,30.21,North,0,10.0,15.0,93,0.00,,,0.24,meteohub,2013-04-15 14:43:00,
2013-04-15 10:48:00,55.0,52.7,30.21,NE,45,11.0,15.0,92,0.00,,,0.24,meteohub,2013-04-15 14:48:00,
2013-04-15 10:53:00,54.9,52.5,30.21,NE,45,11.0,15.0,92,0.00,,,0.24,meteohub,2013-04-15 14:53:00,
2013-04-15 10:58:00,54.9,52.5,30.21,NNW,338,7.0,18.0,92,0.00,,,0.24,meteohub,2013-04-15 14:58:00,
2013-04-15 11:03:00,55.0,52.7,30.21,NW,315,8.0,18.0,92,0.00,,,0.24,meteohub,2013-04-15 15:03:00,
2013-04-15 11:08:00,55.0,52.7,30.21,NE,45,4.0,18.0,92,0.00,,,0.24,meteohub,2013-04-15 15:08:00,
2013-04-15 11:13:00,55.2,52.9,30.21,NNW,338,7.0,14.0,92,0.00,,,0.24,meteohub,2013-04-15 15:13:00,
2013-04-15 11:18:00,55.2,52.9,30.21,NW,315,10.0,11.0,92,0.00,,,0.24,meteohub,2013-04-15 15:18:00,
2013-04-15 11:23:00,55.2,52.9,30.21,NW,315,10.0,11.0,92,0.00,,,0.24,meteohub,2013-04-15 15:23:00,
2013-04-15 11:28:00,55.4,53.1,30.21,NNW,338,10.0,10.0,92,0.00,,,0.24,meteohub,2013-04-15 15:28:00,
2013-04-15 11:34:00,55.4,53.1,30.21,WNW,293,5.0,11.0,92,0.00,,,0.24,meteohub,2013-04-15 15:34:00,
2013-04-15 11:39:00,55.8,53.2,30.21,NNW,338,11.0,11.0,91,0.00,,,0.24,meteohub,2013-04-15 15:39:00,
2013-04-15 11:44:00,55.8,53.2,30.21,NE,45,7.0,11.0,91,0.00,,,0.24,meteohub,2013-04-15 15:44:00,
2013-04-15 11:49:00,55.8,53.2,30.21,NW,315,6.0,11.0,91,0.00,,,0.24,meteohub,2013-04-15 15:49:00,
2013-04-15 11:54:00,55.9,53.4,30.22,NE,45,7.0,11.0,91,0.00,,,0.24,meteohub,2013-04-15 15:54:00,
2013-04-15 11:59:00,56.1,53.6,30.22,North,0,4.0,11.0,91,0.00,,,0.24,meteohub,2013-04-15 15:59:00,
2013-04-15 12:04:00,56.3,53.4,30.22,North,0,4.0,11.0,90,0.00,,,0.24,meteohub,2013-04-15 16:04:00,
2013-04-15 12:09:00,56.3,53.4,30.22,SW,225,5.0,8.0,90,0.00,,,0.24,meteohub,2013-04-15 16:09:00,
2013-04-15 12:14:00,56.3,53.4,30.22,NW,315,4.0,8.0,90,0.00,,,0.24,meteohub,2013-04-15 16:14:00,
2013-04-15 12:19:00,56.5,53.2,30.22,NW,315,4.0,8.0,89,0.00,,,0.24,meteohub,2013-04-15 16:19:00,
2013-04-15 12:24:00,56.5,53.2,30.22,NE,45,5.0,8.0,89,0.00,,,0.24,meteohub,2013-04-15 16:24:00,
2013-04-15 12:29:00,56.7,53.4,30.22,North,0,8.0,8.0,89,0.00,,,0.24,meteohub,2013-04-15 16:29:00,
2013-04-15 12:34:00,56.8,53.2,30.22,NW,315,10.0,10.0,88,0.00,,,0.24,meteohub,2013-04-15 16:34:00,
2013-04-15 12:39:00,56.8,53.2,30.21,North,0,5.0,12.0,88,0.00,,,0.24,meteohub,2013-04-15 16:39:00,
2013-04-15 12:44:00,57.0,53.4,30.22,NW,315,4.0,12.0,88,0.00,,,0.24,meteohub,2013-04-15 16:44:00,
2013-04-15 12:49:00,57.4,53.6,30.22,North,0,8.0,12.0,87,0.00,,,0.24,meteohub,2013-04-15 16:49:00,
2013-04-15 12:54:00,57.4,53.2,30.21,North,0,7.0,11.0,86,0.00,,,0.24,meteohub,2013-04-15 16:54:00,
2013-04-15 12:59:00,57.6,53.4,30.22,North,0,4.0,12.0,86,0.00,,,0.24,meteohub,2013-04-15 16:59:00,
2013-04-15 13:04:00,57.9,53.8,30.21,North,0,7.0,12.0,86,0.00,,,0.24,meteohub,2013-04-15 17:04:00,
2013-04-15 13:09:00,58.1,53.6,30.21,NE,45,8.0,12.0,85,0.00,,,0.24,meteohub,2013-04-15 17:09:00,
2013-04-15 13:14:00,58.1,53.6,30.22,North,0,9.0,10.0,85,0.00,,,0.24,meteohub,2013-04-15 17:14:00,
2013-04-15 13:19:00,58.3,53.4,30.22,North,0,5.0,10.0,84,0.00,,,0.24,meteohub,2013-04-15 17:19:00,
2013-04-15 13:21:00,58.3,53.4,30.22,NE,45,7.0,10.0,84,0.00,,,0.24,meteohub,2013-04-15 17:21:00,
2013-04-15 13:22:00,58.3,53.4,30.22,North,0,5.0,10.0,84,0.00,,,0.24,meteohub,2013-04-15 17:22:00,
2013-04-15 13:24:00,58.3,53.4,30.22,NW,315,7.0,10.0,84,0.00,,,0.24,meteohub,2013-04-15 17:24:00,
2013-04-15 13:29:00,58.3,53.8,30.22,North,0,7.0,10.0,85,0.00,,,0.24,meteohub,2013-04-15 17:29:00,
2013-04-15 13:35:00,58.3,53.4,30.22,North,0,6.0,10.0,84,0.00,,,0.24,meteohub,2013-04-15 17:35:00,
2013-04-15 13:40:00,58.3,53.4,30.22,NW,315,5.0,11.0,84,0.00,,,0.24,meteohub,2013-04-15 17:40:00,
2013-04-15 13:45:00,58.5,53.6,30.22,North,0,9.0,11.0,84,0.00,,,0.24,meteohub,2013-04-15 17:45:00,
2013-04-15 13:50:00,59.0,53.8,30.21,WNW,293,7.0,11.0,83,0.00,,,0.24,meteohub,2013-04-15 17:50:00,
2013-04-15 13:55:00,59.4,54.1,30.22,WNW,293,10.0,12.0,83,0.00,,,0.24,meteohub,2013-04-15 17:55:00,
2013-04-15 14:00:00,59.5,53.8,30.22,NNW,338,4.0,12.0,81,0.00,,,0.24,meteohub,2013-04-15 18:00:00,
2013-04-15 14:05:00,59.7,54.0,30.21,NE,45,7.0,12.0,81,0.00,,,0.24,meteohub,2013-04-15 18:05:00,
2013-04-15 14:10:00,59.9,54.1,30.21,North,0,4.0,10.0,81,0.00,,,0.24,meteohub,2013-04-15 18:10:00,
2013-04-15 14:15:00,60.1,54.0,30.21,NW,315,6.0,10.0,80,0.00,,,0.24,meteohub,2013-04-15 18:15:00,
2013-04-15 14:20:00,60.3,54.1,30.21,NW,315,4.0,9.0,80,0.00,,,0.24,meteohub,2013-04-15 18:20:00,
2013-04-15 14:25:00,60.4,54.3,30.21,NE,45,7.0,9.0,80,0.00,,,0.24,meteohub,2013-04-15 18:25:00,
2013-04-15 14:29:00,60.6,54.1,30.21,North,0,7.0,9.0,79,0.00,,,0.24,meteohub,2013-04-15 18:29:00,
2013-04-15 14:30:00,60.6,53.8,30.22,NE,45,5.0,8.0,78,0.00,,,0.24,meteohub,2013-04-15 18:30:00,
2013-04-15 14:35:00,60.6,53.8,30.22,NE,45,5.0,8.0,78,0.00,,,0.24,meteohub,2013-04-15 18:35:00,
2013-04-15 14:40:00,60.8,53.6,30.21,North,0,4.0,7.0,77,0.00,,,0.24,meteohub,2013-04-15 18:40:00,
2013-04-15 14:45:00,61.2,54.0,30.21,NE,45,7.0,10.0,77,0.00,,,0.24,meteohub,2013-04-15 18:45:00,
2013-04-15 14:50:00,61.3,53.8,30.21,North,0,6.0,10.0,76,0.00,,,0.24,meteohub,2013-04-15 18:50:00,
2013-04-15 14:55:00,61.5,53.6,30.22,North,0,4.0,9.0,75,0.00,,,0.24,meteohub,2013-04-15 18:55:00,
2013-04-15 15:00:00,61.7,54.1,30.22,North,0,5.0,9.0,76,0.00,,,0.24,meteohub,2013-04-15 19:00:00,
2013-04-15 15:05:00,61.9,53.8,30.21,North,0,4.0,7.0,75,0.00,,,0.24,meteohub,2013-04-15 19:05:00,
2013-04-15 15:10:00,62.1,53.6,30.21,SW,225,4.0,7.0,74,0.00,,,0.24,meteohub,2013-04-15 19:10:00,
2013-04-15 15:15:00,62.2,53.8,30.21,NW,315,6.0,8.0,74,0.00,,,0.24,meteohub,2013-04-15 19:15:00,
2013-04-15 15:20:00,61.9,53.1,30.20,West,270,4.0,8.0,73,0.00,,,0.24,meteohub,2013-04-15 19:20:00,
2013-04-15 15:25:00,61.7,52.9,30.20,NW,315,8.0,8.0,73,0.00,,,0.24,meteohub,2013-04-15 19:25:00,
2013-04-15 15:30:00,61.5,52.7,30.20,East,90,11.0,11.0,73,0.00,,,0.24,meteohub,2013-04-15 19:30:00,
2013-04-15 15:35:00,61.2,52.9,30.20,North,0,8.0,9.0,74,0.00,,,0.24,meteohub,2013-04-15 19:35:00,
2013-04-15 15:40:00,60.8,52.5,30.20,NW,315,5.0,11.0,74,0.00,,,0.24,meteohub,2013-04-15 19:40:00,
2013-04-15 15:45:00,60.8,52.9,30.20,North,0,5.0,11.0,75,0.00,,,0.24,meteohub,2013-04-15 19:45:00,
2013-04-15 15:52:00,60.6,53.1,30.20,NW,315,5.0,7.0,76,0.00,,,0.24,meteohub,2013-04-15 19:52:00,
2013-04-15 15:57:00,60.4,52.9,30.20,NE,45,7.0,7.0,76,0.00,,,0.24,meteohub,2013-04-15 19:57:00,
2013-04-15 15:59:00,60.4,52.9,30.20,NW,315,6.0,7.0,76,0.00,,,0.24,meteohub,2013-04-15 19:59:00,
2013-04-15 16:01:00,60.4,52.9,30.20,NW,315,4.0,7.0,76,0.00,,,0.24,meteohub,2013-04-15 20:01:00,
2013-04-15 16:02:00,60.4,52.9,30.20,NW,315,4.0,7.0,76,0.00,,,0.24,meteohub,2013-04-15 20:02:00,
2013-04-15 16:03:00,60.4,52.9,30.20,NW,315,4.0,7.0,76,0.00,,,0.24,meteohub,2013-04-15 20:03:00,
2013-04-15 16:08:00,60.3,53.1,30.20,North,0,4.0,7.0,77,0.00,,,0.24,meteohub,2013-04-15 20:08:00,
2013-04-15 16:13:00,60.4,53.2,30.20,NE,45,2.0,7.0,77,0.00,,,0.24,meteohub,2013-04-15 20:13:00,
2013-04-15 16:18:00,60.4,53.2,30.19,WNW,293,4.0,4.0,77,0.00,,,0.24,meteohub,2013-04-15 20:18:00,
2013-04-15 16:23:00,60.6,53.4,30.19,NE,45,3.0,4.0,77,0.00,,,0.24,meteohub,2013-04-15 20:23:00,
2013-04-15 16:28:00,60.6,53.4,30.20,East,90,3.0,4.0,77,0.00,,,0.24,meteohub,2013-04-15 20:28:00,
2013-04-15 16:33:00,60.6,53.4,30.20,NE,45,3.0,5.0,77,0.00,,,0.24,meteohub,2013-04-15 20:33:00,
2013-04-15 16:38:00,60.6,53.4,30.19,North,0,8.0,8.0,77,0.00,,,0.24,meteohub,2013-04-15 20:38:00,
2013-04-15 16:43:00,60.6,53.4,30.19,NW,315,4.0,8.0,77,0.00,,,0.24,meteohub,2013-04-15 20:43:00,
2013-04-15 16:48:00,60.6,53.4,30.19,NE,45,2.0,8.0,77,0.00,,,0.24,meteohub,2013-04-15 20:48:00,
2013-04-15 16:53:00,60.6,53.4,30.19,NW,315,2.0,8.0,77,0.00,,,0.24,meteohub,2013-04-15 20:53:00,
2013-04-15 16:58:00,60.8,53.2,30.19,South,180,2.0,4.0,76,0.00,,,0.24,meteohub,2013-04-15 20:58:00,
2013-04-15 17:03:00,60.8,53.2,30.20,South,180,2.0,6.0,76,0.00,,,0.24,meteohub,2013-04-15 21:03:00,
2013-04-15 17:08:00,60.8,53.6,30.20,NE,45,4.0,6.0,77,0.00,,,0.24,meteohub,2013-04-15 21:08:00,
2013-04-15 17:13:00,61.0,53.8,30.20,NE,45,2.0,6.0,77,0.00,,,0.24,meteohub,2013-04-15 21:13:00,
2013-04-15 17:18:00,61.0,53.8,30.20,NW,315,2.0,4.0,77,0.00,,,0.24,meteohub,2013-04-15 21:18:00,
2013-04-15 17:24:00,61.0,53.4,30.20,NE,45,2.0,4.0,76,0.00,,,0.24,meteohub,2013-04-15 21:24:00,
2013-04-15 17:29:00,61.0,53.8,30.20,NE,45,4.0,4.0,77,0.00,,,0.24,meteohub,2013-04-15 21:29:00,
2013-04-15 17:34:00,61.0,53.8,30.20,NW,315,4.0,4.0,77,0.00,,,0.24,meteohub,2013-04-15 21:34:00,
2013-04-15 17:39:00,61.0,53.8,30.21,North,0,2.0,4.0,77,0.00,,,0.24,meteohub,2013-04-15 21:39:00,
2013-04-15 17:44:00,61.0,53.8,30.20,NE,45,6.0,7.0,77,0.00,,,0.24,meteohub,2013-04-15 21:44:00,
2013-04-15 17:49:00,60.8,53.6,30.20,NW,315,5.0,7.0,77,0.00,,,0.24,meteohub,2013-04-15 21:49:00,
2013-04-15 17:54:00,60.8,53.6,30.21,NNE,23,2.0,7.0,77,0.00,,,0.24,meteohub,2013-04-15 21:54:00,
2013-04-15 17:59:00,60.8,54.0,30.21,NNE,23,2.0,7.0,78,0.00,,,0.24,meteohub,2013-04-15 21:59:00,
2013-04-15 18:04:00,60.8,54.0,30.21,NE,45,3.0,7.0,78,0.00,,,0.24,meteohub,2013-04-15 22:04:00,
2013-04-15 18:09:00,60.8,54.0,30.21,NW,315,2.0,6.0,78,0.00,,,0.24,meteohub,2013-04-15 22:09:00,
2013-04-15 18:14:00,60.8,54.3,30.21,North,0,2.0,4.0,79,0.00,,,0.24,meteohub,2013-04-15 22:14:00,
2013-04-15 18:19:00,60.8,54.3,30.22,NE,45,2.0,4.0,79,0.00,,,0.24,meteohub,2013-04-15 22:19:00,
2013-04-15 18:24:00,60.6,54.5,30.22,North,0,4.0,4.0,80,0.00,,,0.24,meteohub,2013-04-15 22:24:00,
2013-04-15 18:29:00,60.6,54.5,30.22,NE,45,4.0,5.0,80,0.00,,,0.24,meteohub,2013-04-15 22:29:00,
2013-04-15 18:34:00,60.4,54.3,30.22,NE,45,4.0,7.0,80,0.00,,,0.24,meteohub,2013-04-15 22:34:00,
2013-04-15 18:39:00,60.4,54.5,30.22,North,0,3.0,8.0,81,0.00,,,0.24,meteohub,2013-04-15 22:39:00,
2013-04-15 18:44:00,60.4,54.5,30.22,North,0,5.0,8.0,81,0.00,,,0.24,meteohub,2013-04-15 22:44:00,
2013-04-15 18:49:00,60.3,54.7,30.22,North,0,5.0,8.0,82,0.00,,,0.24,meteohub,2013-04-15 22:49:00,
2013-04-15 18:54:00,60.3,54.7,30.22,NW,315,4.0,8.0,82,0.00,,,0.24,meteohub,2013-04-15 22:54:00,
2013-04-15 18:59:00,60.1,54.5,30.22,North,0,3.0,5.0,82,0.00,,,0.24,meteohub,2013-04-15 22:59:00,
2013-04-15 19:04:00,60.1,54.9,30.22,North,0,4.0,5.0,83,0.00,,,0.24,meteohub,2013-04-15 23:04:00,
2013-04-15 19:09:00,60.1,54.9,30.22,North,0,4.0,6.0,83,0.00,,,0.24,meteohub,2013-04-15 23:09:00,
2013-04-15 19:14:00,60.1,54.9,30.22,NW,315,2.0,6.0,83,0.00,,,0.24,meteohub,2013-04-15 23:14:00,
2013-04-15 19:19:00,59.9,54.7,30.22,NW,315,6.0,6.0,83,0.00,,,0.24,meteohub,2013-04-15 23:19:00,
2013-04-15 19:24:00,59.9,54.7,30.22,North,0,8.0,8.0,83,0.00,,,0.24,meteohub,2013-04-15 23:24:00,
2013-04-15 19:29:00,59.7,54.5,30.22,North,0,3.0,8.0,83,0.00,,,0.24,meteohub,2013-04-15 23:29:00,
2013-04-15 19:34:00,59.7,54.5,30.22,North,0,10.0,10.0,83,0.00,,,0.24,meteohub,2013-04-15 23:34:00,
2013-04-15 19:39:00,59.7,54.5,30.22,North,0,2.0,8.0,83,0.00,,,0.24,meteohub,2013-04-15 23:39:00,
2013-04-15 19:44:00,59.7,54.5,30.22,NW,315,6.0,10.0,83,0.00,,,0.24,meteohub,2013-04-15 23:44:00,
2013-04-15 19:49:00,59.5,54.3,30.22,NW,315,4.0,10.0,83,0.00,,,0.24,meteohub,2013-04-15 23:49:00,
2013-04-15 19:54:00,59.5,54.3,30.22,North,0,3.0,10.0,83,0.00,,,0.24,meteohub,2013-04-15 23:54:00,
2013-04-15 19:59:00,59.4,54.1,30.23,NW,315,2.0,10.0,83,0.00,,,0.24,meteohub,2013-04-15 23:59:00,
2013-04-15 20:04:00,59.4,54.1,30.23,North,0,2.0,4.0,83,0.00,,,0.24,meteohub,2013-04-16 00:04:00,
2013-04-15 20:09:00,59.4,54.1,30.24,North,0,5.0,5.0,83,0.00,,,0.00,meteohub,2013-04-16 00:09:00,
2013-04-15 20:14:00,59.4,54.5,30.24,NW,315,3.0,5.0,84,0.00,,,0.00,meteohub,2013-04-16 00:14:00,
2013-04-15 20:19:00,59.2,54.3,30.24,West,270,1.0,5.0,84,0.00,,,0.00,meteohub,2013-04-16 00:19:00,
2013-04-15 20:24:00,59.2,54.3,30.24,NE,45,2.0,5.0,84,0.00,,,0.00,meteohub,2013-04-16 00:24:00,
2013-04-15 20:29:00,59.0,54.1,30.24,NW,315,0.0,4.0,84,0.00,,,0.00,meteohub,2013-04-16 00:29:00,
2013-04-15 20:34:00,59.0,54.1,30.24,SE,135,1.0,3.0,84,0.00,,,0.00,meteohub,2013-04-16 00:34:00,
2013-04-15 20:39:00,59.0,54.1,30.25,South,180,1.0,3.0,84,0.00,,,0.00,meteohub,2013-04-16 00:39:00,
2013-04-15 20:44:00,58.8,54.7,30.25,SW,225,1.0,3.0,86,0.00,,,0.00,meteohub,2013-04-16 00:44:00,
2013-04-15 20:49:00,58.6,54.5,30.25,NE,45,1.0,2.0,86,0.00,,,0.00,meteohub,2013-04-16 00:49:00,
2013-04-15 20:54:00,58.6,54.5,30.25,WNW,293,2.0,2.0,86,0.00,,,0.00,meteohub,2013-04-16 00:54:00,
2013-04-15 21:00:00,58.6,54.5,30.25,NW,315,2.0,2.0,86,0.00,,,0.00,meteohub,2013-04-16 01:00:00,
2013-04-15 21:05:00,58.6,54.5,30.25,NW,315,2.0,2.0,86,0.00,,,0.00,meteohub,2013-04-16 01:05:00,
2013-04-15 21:10:00,58.6,54.5,30.26,NW,315,4.0,4.0,86,0.00,,,0.00,meteohub,2013-04-16 01:10:00,
2013-04-15 21:15:00,58.8,54.7,30.26,NW,315,2.0,4.0,86,0.00,,,0.00,meteohub,2013-04-16 01:15:00,
2013-04-15 21:20:00,58.8,54.7,30.26,NW,315,2.0,4.0,86,0.00,,,0.00,meteohub,2013-04-16 01:20:00,
2013-04-15 21:25:00,58.8,54.7,30.26,North,0,2.0,4.0,86,0.00,,,0.00,meteohub,2013-04-16 01:25:00,
2013-04-15 21:30:00,58.8,54.7,30.26,NW,315,2.0,4.0,86,0.00,,,0.00,meteohub,2013-04-16 01:30:00,
2013-04-15 21:35:00,58.6,54.5,30.27,North,0,2.0,4.0,86,0.00,,,0.00,meteohub,2013-04-16 01:35:00,
2013-04-15 21:40:00,58.6,54.5,30.27,North,0,2.0,4.0,86,0.00,,,0.00,meteohub,2013-04-16 01:40:00,
2013-04-15 21:45:00,58.6,54.5,30.27,NW,315,3.0,4.0,86,0.00,,,0.00,meteohub,2013-04-16 01:45:00,
2013-04-15 21:50:00,58.6,54.5,30.27,NW,315,4.0,4.0,86,0.00,,,0.00,meteohub,2013-04-16 01:50:00,
2013-04-15 21:55:00,58.6,54.9,30.26,North,0,6.0,8.0,87,0.00,,,0.00,meteohub,2013-04-16 01:55:00,
2013-04-15 22:00:00,58.6,54.9,30.27,NW,315,5.0,8.0,87,0.00,,,0.00,meteohub,2013-04-16 02:00:00,
2013-04-15 22:05:00,58.6,54.9,30.27,NW,315,5.0,8.0,87,0.00,,,0.00,meteohub,2013-04-16 02:05:00,
2013-04-15 22:10:00,58.5,54.7,30.27,NW,315,4.0,6.0,87,0.00,,,0.00,meteohub,2013-04-16 02:10:00,
2013-04-15 22:15:00,58.5,54.7,30.27,NE,45,4.0,6.0,87,0.00,,,0.00,meteohub,2013-04-16 02:15:00,
2013-04-15 22:20:00,58.5,54.7,30.27,NW,315,3.0,6.0,87,0.00,,,0.00,meteohub,2013-04-16 02:20:00,
2013-04-15 22:25:00,58.5,54.7,30.27,North,0,4.0,6.0,87,0.00,,,0.00,meteohub,2013-04-16 02:25:00,
2013-04-15 22:30:00,58.3,54.5,30.27,North,0,5.0,8.0,87,0.00,,,0.00,meteohub,2013-04-16 02:30:00,
2013-04-15 22:35:00,58.3,54.5,30.27,NNW,338,8.0,10.0,87,0.00,,,0.00,meteohub,2013-04-16 02:35:00,
2013-04-15 22:40:00,58.3,54.7,30.28,NE,45,7.0,10.0,88,0.00,,,0.00,meteohub,2013-04-16 02:40:00,
2013-04-15 22:45:00,58.1,54.5,30.28,NW,315,3.0,10.0,88,0.00,,,0.00,meteohub,2013-04-16 02:45:00,
2013-04-15 22:50:00,58.1,54.5,30.28,North,0,4.0,8.0,88,0.00,,,0.00,meteohub,2013-04-16 02:50:00,
2013-04-15 22:55:00,58.1,54.5,30.28,North,0,4.0,7.0,88,0.00,,,0.00,meteohub,2013-04-16 02:55:00,
2013-04-15 23:00:00,57.9,54.3,30.28,North,0,4.0,6.0,88,0.00,,,0.00,meteohub,2013-04-16 03:00:00,
2013-04-15 23:05:00,57.7,54.5,30.29,NW,315,3.0,6.0,89,0.00,,,0.00,meteohub,2013-04-16 03:05:00,
2013-04-15 23:10:00,57.7,54.5,30.29,North,0,8.0,8.0,89,0.00,,,0.00,meteohub,2013-04-16 03:10:00,
2013-04-15 23:15:00,57.7,54.5,30.28,North,0,3.0,8.0,89,0.00,,,0.00,meteohub,2013-04-16 03:15:00,
2013-04-15 23:20:00,57.7,54.5,30.29,North,0,3.0,8.0,89,0.00,,,0.00,meteohub,2013-04-16 03:20:00,
2013-04-15 23:25:00,57.7,54.5,30.29,North,0,1.0,8.0,89,0.00,,,0.00,meteohub,2013-04-16 03:25:00,
2013-04-15 23:30:00,57.7,54.5,30.29,NW,315,1.0,3.0,89,0.00,,,0.00,meteohub,2013-04-16 03:30:00,
2013-04-15 23:35:00,57.6,54.3,30.29,SW,225,2.0,3.0,89,0.00,,,0.00,meteohub,2013-04-16 03:35:00,
2013-04-15 23:40:00,57.6,54.7,30.29,North,0,2.0,4.0,90,0.00,,,0.00,meteohub,2013-04-16 03:40:00,
2013-04-15 23:45:00,57.6,54.7,30.29,NW,315,2.0,4.0,90,0.00,,,0.00,meteohub,2013-04-16 03:45:00,
2013-04-15 23:50:00,57.6,54.7,30.29,NW,315,0.0,4.0,90,0.00,,,0.00,meteohub,2013-04-16 03:50:00,
2013-04-15 23:56:00,57.6,54.7,30.29,SW,225,1.0,2.0,90,0.00,,,0.00,meteohub,2013-04-16 03:56:00,